Seaford, Virginia
Current Conditions -  °F | °C
As of 7:54 PM on Tuesday 27 Jan 2015 (Local Time) from KPHF Reporting Station
Overcast Overcast  
Wind Chill: 30°   Ceiling: 10000
Heat Index: 37°   Visibility: 10mi
Dew Point: 25°   Wind: 9mph
Humidity: 62%   Direction: 320°NW
Pressure: 29.87"   Gusts: NA
Location:  37.2°N, 76.43°W
Report Text: KPHF 280054Z 32008KT 10SM OVC100 03/M04 A2987 RMK AO2 SLP114 T00281039
Loading
Personal Weather Stations






























Interactive Weather Map New forecast layout! Learn more

10-Day Weather Forecast

Advertisements
Track Severe Weather on mobile